sensor_id;sensor_type;location;lat;lon;timestamp;temperature;humidity
50162;DHT22;36061;48.116;11.612;2023-05-10T00:01:23;13.60;99.90
50162;DHT22;36061;48.116;11.612;2023-05-10T00:03:50;13.60;99.90
50162;DHT22;36061;48.116;11.612;2023-05-10T00:06:17;13.60;99.90
50162;DHT22;36061;48.116;11.612;2023-05-10T00:08:45;13.60;99.90
50162;DHT22;36061;48.116;11.612;2023-05-10T00:11:13;13.60;99.90
50162;DHT22;36061;48.116;11.612;2023-05-10T00:13:41;13.60;99.90
50162;DHT22;36061;48.116;11.612;2023-05-10T00:16:08;13.60;99.90
50162;DHT22;36061;48.116;11.612;2023-05-10T00:18:35;13.60;99.90
50162;DHT22;36061;48.116;11.612;2023-05-10T00:21:02;13.50;99.90
50162;DHT22;36061;48.116;11.612;2023-05-10T00:23:30;13.50;99.90
50162;DHT22;36061;48.116;11.612;2023-05-10T00:25:57;13.50;99.90
50162;DHT22;36061;48.116;11.612;2023-05-10T00:28:27;13.50;99.90
50162;DHT22;36061;48.116;11.612;2023-05-10T00:30:54;13.50;99.90
50162;DHT22;36061;48.116;11.612;2023-05-10T00:33:22;13.50;99.90
50162;DHT22;36061;48.116;11.612;2023-05-10T00:35:49;13.50;99.90
50162;DHT22;36061;48.116;11.612;2023-05-10T00:38:16;13.50;99.90
50162;DHT22;36061;48.116;11.612;2023-05-10T00:40:43;13.50;99.90
50162;DHT22;36061;48.116;11.612;2023-05-10T00:43:19;13.50;99.90
50162;DHT22;36061;48.116;11.612;2023-05-10T00:45:48;13.50;99.90
50162;DHT22;36061;48.116;11.612;2023-05-10T00:48:16;13.40;99.90
50162;DHT22;36061;48.116;11.612;2023-05-10T00:50:44;13.40;99.90
50162;DHT22;36061;48.116;11.612;2023-05-10T00:53:12;13.40;99.90
50162;DHT22;36061;48.116;11.612;2023-05-10T00:55:39;13.30;99.90
50162;DHT22;36061;48.116;11.612;2023-05-10T00:58:07;13.30;99.90
50162;DHT22;36061;48.116;11.612;2023-05-10T01:00:34;13.30;99.90
50162;DHT22;36061;48.116;11.612;2023-05-10T01:03:04;13.30;99.90
50162;DHT22;36061;48.116;11.612;2023-05-10T01:05:31;13.30;99.90
50162;DHT22;36061;48.116;11.612;2023-05-10T01:07:59;13.30;99.90
50162;DHT22;36061;48.116;11.612;2023-05-10T01:10:26;13.30;99.90
50162;DHT22;36061;48.116;11.612;2023-05-10T01:12:53;13.30;99.90
50162;DHT22;36061;48.116;11.612;2023-05-10T01:15:22;13.40;99.90
50162;DHT22;36061;48.116;11.612;2023-05-10T01:17:49;13.40;99.90
50162;DHT22;36061;48.116;11.612;2023-05-10T01:20:18;13.30;99.90
50162;DHT22;36061;48.116;11.612;2023-05-10T01:23:10;13.30;99.90
50162;DHT22;36061;48.116;11.612;2023-05-10T01:26:01;13.30;99.90
50162;DHT22;36061;48.116;11.612;2023-05-10T01:32:08;13.20;99.90
50162;DHT22;36061;48.116;11.612;2023-05-10T01:34:42;13.20;99.90
50162;DHT22;36061;48.116;11.612;2023-05-10T01:37:15;13.20;99.90
50162;DHT22;36061;48.116;11.612;2023-05-10T01:39:46;13.20;99.90
50162;DHT22;36061;48.116;11.612;2023-05-10T01:42:19;13.20;99.90
50162;DHT22;36061;48.116;11.612;2023-05-10T01:44:56;13.20;99.90
50162;DHT22;36061;48.116;11.612;2023-05-10T01:47:38;13.20;99.90
50162;DHT22;36061;48.116;11.612;2023-05-10T01:50:10;13.20;99.90
50162;DHT22;36061;48.116;11.612;2023-05-10T01:52:42;13.20;99.90
50162;DHT22;36061;48.116;11.612;2023-05-10T01:55:14;13.20;99.90
50162;DHT22;36061;48.116;11.612;2023-05-10T01:57:44;13.20;99.90
50162;DHT22;36061;48.116;11.612;2023-05-10T02:00:14;13.20;99.90
50162;DHT22;36061;48.116;11.612;2023-05-10T02:02:46;13.20;99.90
50162;DHT22;36061;48.116;11.612;2023-05-10T02:05:16;13.20;99.90
50162;DHT22;36061;48.116;11.612;2023-05-10T02:07:44;13.20;99.90
50162;DHT22;36061;48.116;11.612;2023-05-10T02:10:13;13.20;99.90
50162;DHT22;36061;48.116;11.612;2023-05-10T02:12:43;13.20;99.90
50162;DHT22;36061;48.116;11.612;2023-05-10T02:15:12;13.20;99.90
50162;DHT22;36061;48.116;11.612;2023-05-10T02:17:40;13.20;99.90
50162;DHT22;36061;48.116;11.612;2023-05-10T02:20:11;13.20;99.90
50162;DHT22;36061;48.116;11.612;2023-05-10T02:22:41;13.20;99.90
50162;DHT22;36061;48.116;11.612;2023-05-10T02:25:11;13.20;99.90
50162;DHT22;36061;48.116;11.612;2023-05-10T02:27:41;13.20;99.90
50162;DHT22;36061;48.116;11.612;2023-05-10T02:30:10;13.30;99.90
50162;DHT22;36061;48.116;11.612;2023-05-10T02:32:39;13.20;99.90
50162;DHT22;36061;48.116;11.612;2023-05-10T02:35:07;13.30;99.90
50162;DHT22;36061;48.116;11.612;2023-05-10T02:37:37;13.30;99.90
50162;DHT22;36061;48.116;11.612;2023-05-10T02:40:05;13.30;99.90
50162;DHT22;36061;48.116;11.612;2023-05-10T02:42:35;13.20;99.90
50162;DHT22;36061;48.116;11.612;2023-05-10T02:45:10;13.20;99.90
50162;DHT22;36061;48.116;11.612;2023-05-10T02:47:38;13.20;99.90
50162;DHT22;36061;48.116;11.612;2023-05-10T02:50:06;13.20;99.90
50162;DHT22;36061;48.116;11.612;2023-05-10T02:52:39;13.30;99.90
50162;DHT22;36061;48.116;11.612;2023-05-10T02:55:09;13.20;99.90
50162;DHT22;36061;48.116;11.612;2023-05-10T02:57:42;13.20;99.90
50162;DHT22;36061;48.116;11.612;2023-05-10T03:00:10;13.30;99.90
50162;DHT22;36061;48.116;11.612;2023-05-10T03:02:38;13.30;99.90
50162;DHT22;36061;48.116;11.612;2023-05-10T03:05:05;13.20;99.90
50162;DHT22;36061;48.116;11.612;2023-05-10T03:07:33;13.20;99.90
50162;DHT22;36061;48.116;11.612;2023-05-10T03:10:03;13.20;99.90
50162;DHT22;36061;48.116;11.612;2023-05-10T03:12:39;13.20;99.90
50162;DHT22;36061;48.116;11.612;2023-05-10T03:15:13;13.20;99.90
50162;DHT22;36061;48.116;11.612;2023-05-10T03:17:47;13.20;99.90
50162;DHT22;36061;48.116;11.612;2023-05-10T03:20:21;13.10;99.90
50162;DHT22;36061;48.116;11.612;2023-05-10T03:22:52;13.10;99.90
50162;DHT22;36061;48.116;11.612;2023-05-10T03:25:21;13.10;99.90
50162;DHT22;36061;48.116;11.612;2023-05-10T03:27:52;13.10;99.90
50162;DHT22;36061;48.116;11.612;2023-05-10T03:30:20;13.10;99.90
50162;DHT22;36061;48.116;11.612;2023-05-10T03:32:48;13.10;99.90
50162;DHT22;36061;48.116;11.612;2023-05-10T03:35:17;13.10;99.90
50162;DHT22;36061;48.116;11.612;2023-05-10T03:37:44;13.00;99.90
50162;DHT22;36061;48.116;11.612;2023-05-10T03:40:12;13.10;99.90
50162;DHT22;36061;48.116;11.612;2023-05-10T03:42:43;13.00;99.90
50162;DHT22;36061;48.116;11.612;2023-05-10T03:45:11;13.00;99.90
50162;DHT22;36061;48.116;11.612;2023-05-10T03:47:38;13.10;99.90
50162;DHT22;36061;48.116;11.612;2023-05-10T03:50:07;13.10;99.90
50162;DHT22;36061;48.116;11.612;2023-05-10T03:52:36;13.00;99.90
50162;DHT22;36061;48.116;11.612;2023-05-10T03:55:05;13.00;99.90
50162;DHT22;36061;48.116;11.612;2023-05-10T03:57:33;13.00;99.90
50162;DHT22;36061;48.116;11.612;2023-05-10T04:00:02;13.00;99.90
50162;DHT22;36061;48.116;11.612;2023-05-10T04:02:40;13.00;99.90
50162;DHT22;36061;48.116;11.612;2023-05-10T04:05:11;13.00;99.90
50162;DHT22;36061;48.116;11.612;2023-05-10T04:07:38;13.00;99.90
50162;DHT22;36061;48.116;11.612;2023-05-10T04:10:06;13.00;99.90
50162;DHT22;36061;48.116;11.612;2023-05-10T04:12:34;13.00;99.90
50162;DHT22;36061;48.116;11.612;2023-05-10T04:15:03;13.00;99.90
50162;DHT22;36061;48.116;11.612;2023-05-10T04:17:30;13.00;99.90
50162;DHT22;36061;48.116;11.612;2023-05-10T04:19:58;13.00;99.90
50162;DHT22;36061;48.116;11.612;2023-05-10T04:22:25;13.00;99.90
50162;DHT22;36061;48.116;11.612;2023-05-10T04:24:53;13.00;99.90
50162;DHT22;36061;48.116;11.612;2023-05-10T04:27:20;13.00;99.90
50162;DHT22;36061;48.116;11.612;2023-05-10T04:29:48;13.00;99.90
50162;DHT22;36061;48.116;11.612;2023-05-10T04:32:17;13.00;99.90
50162;DHT22;36061;48.116;11.612;2023-05-10T04:34:44;13.00;99.90
50162;DHT22;36061;48.116;11.612;2023-05-10T04:37:12;13.00;99.90
50162;DHT22;36061;48.116;11.612;2023-05-10T04:39:39;13.00;99.90
50162;DHT22;36061;48.116;11.612;2023-05-10T04:42:06;13.10;99.90
50162;DHT22;36061;48.116;11.612;2023-05-10T04:44:33;13.10;99.90
50162;DHT22;36061;48.116;11.612;2023-05-10T04:47:01;13.00;99.90
50162;DHT22;36061;48.116;11.612;2023-05-10T04:49:30;13.00;99.90
50162;DHT22;36061;48.116;11.612;2023-05-10T04:51:57;13.00;99.90
50162;DHT22;36061;48.116;11.612;2023-05-10T04:54:24;13.00;99.90
50162;DHT22;36061;48.116;11.612;2023-05-10T04:56:52;13.10;99.90
50162;DHT22;36061;48.116;11.612;2023-05-10T04:59:19;13.10;99.90
50162;DHT22;36061;48.116;11.612;2023-05-10T05:01:46;13.10;99.90
50162;DHT22;36061;48.116;11.612;2023-05-10T05:04:13;13.00;99.90
50162;DHT22;36061;48.116;11.612;2023-05-10T05:06:42;13.00;99.90
50162;DHT22;36061;48.116;11.612;2023-05-10T05:09:10;13.00;99.90
50162;DHT22;36061;48.116;11.612;2023-05-10T05:11:37;12.90;99.90
50162;DHT22;36061;48.116;11.612;2023-05-10T05:14:04;12.90;99.90
50162;DHT22;36061;48.116;11.612;2023-05-10T05:16:31;12.90;99.90
50162;DHT22;36061;48.116;11.612;2023-05-10T05:18:59;12.90;99.90
50162;DHT22;36061;48.116;11.612;2023-05-10T05:21:27;12.80;99.90
50162;DHT22;36061;48.116;11.612;2023-05-10T05:23:56;12.80;99.90
50162;DHT22;36061;48.116;11.612;2023-05-10T05:26:23;12.70;99.90
50162;DHT22;36061;48.116;11.612;2023-05-10T05:28:50;12.70;99.90
50162;DHT22;36061;48.116;11.612;2023-05-10T05:31:20;12.60;99.90
50162;DHT22;36061;48.116;11.612;2023-05-10T05:33:47;12.60;99.90
50162;DHT22;36061;48.116;11.612;2023-05-10T05:36:14;12.60;99.90
50162;DHT22;36061;48.116;11.612;2023-05-10T05:38:41;12.50;99.90
50162;DHT22;36061;48.116;11.612;2023-05-10T05:41:10;12.50;99.90
50162;DHT22;36061;48.116;11.612;2023-05-10T05:43:37;12.40;99.90
50162;DHT22;36061;48.116;11.612;2023-05-10T05:46:05;12.40;99.90
50162;DHT22;36061;48.116;11.612;2023-05-10T05:48:32;12.40;99.90
50162;DHT22;36061;48.116;11.612;2023-05-10T05:50:59;12.40;99.90
50162;DHT22;36061;48.116;11.612;2023-05-10T05:53:26;12.40;99.90
50162;DHT22;36061;48.116;11.612;2023-05-10T05:55:54;12.30;99.90
50162;DHT22;36061;48.116;11.612;2023-05-10T05:58:23;12.30;99.90
50162;DHT22;36061;48.116;11.612;2023-05-10T06:00:50;12.30;99.90
50162;DHT22;36061;48.116;11.612;2023-05-10T06:03:18;12.20;99.90
50162;DHT22;36061;48.116;11.612;2023-05-10T06:05:45;12.20;99.90
50162;DHT22;36061;48.116;11.612;2023-05-10T06:08:12;12.20;99.90
50162;DHT22;36061;48.116;11.612;2023-05-10T06:10:39;12.20;99.90
50162;DHT22;36061;48.116;11.612;2023-05-10T06:13:06;12.20;99.90
50162;DHT22;36061;48.116;11.612;2023-05-10T06:15:35;12.30;99.90
50162;DHT22;36061;48.116;11.612;2023-05-10T06:18:02;12.30;99.90
50162;DHT22;36061;48.116;11.612;2023-05-10T06:20:30;12.40;99.90
50162;DHT22;36061;48.116;11.612;2023-05-10T06:22:58;12.40;99.90
50162;DHT22;36061;48.116;11.612;2023-05-10T06:25:25;12.50;99.90
50162;DHT22;36061;48.116;11.612;2023-05-10T06:27:52;12.50;99.90
50162;DHT22;36061;48.116;11.612;2023-05-10T06:30:24;12.50;99.90
50162;DHT22;36061;48.116;11.612;2023-05-10T06:32:55;12.60;99.90
50162;DHT22;36061;48.116;11.612;2023-05-10T06:35:22;12.60;99.90
50162;DHT22;36061;48.116;11.612;2023-05-10T06:37:50;12.60;99.90
50162;DHT22;36061;48.116;11.612;2023-05-10T06:40:18;12.70;99.90
50162;DHT22;36061;48.116;11.612;2023-05-10T06:42:45;12.70;99.90
50162;DHT22;36061;48.116;11.612;2023-05-10T06:45:12;12.70;99.90
50162;DHT22;36061;48.116;11.612;2023-05-10T06:47:40;12.60;99.90
50162;DHT22;36061;48.116;11.612;2023-05-10T06:50:10;12.60;99.90
50162;DHT22;36061;48.116;11.612;2023-05-10T06:52:38;12.60;99.90
50162;DHT22;36061;48.116;11.612;2023-05-10T06:55:07;12.70;99.90
50162;DHT22;36061;48.116;11.612;2023-05-10T06:57:34;12.70;99.90
50162;DHT22;36061;48.116;11.612;2023-05-10T07:00:02;12.80;99.90
50162;DHT22;36061;48.116;11.612;2023-05-10T07:02:31;12.90;99.90
50162;DHT22;36061;48.116;11.612;2023-05-10T07:04:58;12.90;99.90
50162;DHT22;36061;48.116;11.612;2023-05-10T07:07:26;13.00;99.90
50162;DHT22;36061;48.116;11.612;2023-05-10T07:09:54;13.00;99.90
50162;DHT22;36061;48.116;11.612;2023-05-10T07:12:22;13.00;99.90
50162;DHT22;36061;48.116;11.612;2023-05-10T07:14:49;13.10;99.90
50162;DHT22;36061;48.116;11.612;2023-05-10T07:17:16;13.10;99.90
50162;DHT22;36061;48.116;11.612;2023-05-10T07:19:44;13.10;99.90
50162;DHT22;36061;48.116;11.612;2023-05-10T07:22:11;13.10;99.90
50162;DHT22;36061;48.116;11.612;2023-05-10T07:24:40;13.10;99.90
50162;DHT22;36061;48.116;11.612;2023-05-10T07:27:07;13.00;99.90
50162;DHT22;36061;48.116;11.612;2023-05-10T07:29:35;13.10;99.90
50162;DHT22;36061;48.116;11.612;2023-05-10T07:32:03;13.20;99.90
50162;DHT22;36061;48.116;11.612;2023-05-10T07:34:30;13.30;99.90
50162;DHT22;36061;48.116;11.612;2023-05-10T07:36:58;13.50;99.90
50162;DHT22;36061;48.116;11.612;2023-05-10T07:39:25;13.70;99.90
50162;DHT22;36061;48.116;11.612;2023-05-10T07:41:54;13.80;99.90
50162;DHT22;36061;48.116;11.612;2023-05-10T07:44:22;13.90;99.90
50162;DHT22;36061;48.116;11.612;2023-05-10T07:46:50;13.90;99.90
50162;DHT22;36061;48.116;11.612;2023-05-10T07:49:17;13.80;99.90
50162;DHT22;36061;48.116;11.612;2023-05-10T07:51:44;13.90;99.90
50162;DHT22;36061;48.116;11.612;2023-05-10T07:54:11;14.00;99.90
50162;DHT22;36061;48.116;11.612;2023-05-10T07:56:39;14.10;99.90
50162;DHT22;36061;48.116;11.612;2023-05-10T07:59:15;14.20;99.90
50162;DHT22;36061;48.116;11.612;2023-05-10T08:01:43;14.30;99.90
50162;DHT22;36061;48.116;11.612;2023-05-10T08:04:10;14.20;99.90
50162;DHT22;36061;48.116;11.612;2023-05-10T08:06:37;14.30;99.90
50162;DHT22;36061;48.116;11.612;2023-05-10T08:09:04;14.40;99.90
50162;DHT22;36061;48.116;11.612;2023-05-10T08:11:32;14.50;99.90
50162;DHT22;36061;48.116;11.612;2023-05-10T08:13:59;14.80;99.90
50162;DHT22;36061;48.116;11.612;2023-05-10T08:16:27;14.90;99.90
50162;DHT22;36061;48.116;11.612;2023-05-10T08:18:55;15.00;99.90
50162;DHT22;36061;48.116;11.612;2023-05-10T08:21:22;15.10;99.90
50162;DHT22;36061;48.116;11.612;2023-05-10T08:23:49;15.20;99.90
50162;DHT22;36061;48.116;11.612;2023-05-10T08:26:16;15.20;99.90
50162;DHT22;36061;48.116;11.612;2023-05-10T08:28:43;15.10;99.90
50162;DHT22;36061;48.116;11.612;2023-05-10T08:31:12;15.10;99.90
50162;DHT22;36061;48.116;11.612;2023-05-10T08:33:40;15.10;99.90
50162;DHT22;36061;48.116;11.612;2023-05-10T08:36:08;15.10;99.90
50162;DHT22;36061;48.116;11.612;2023-05-10T08:38:35;15.00;99.90
50162;DHT22;36061;48.116;11.612;2023-05-10T08:41:04;15.00;99.90
50162;DHT22;36061;48.116;11.612;2023-05-10T08:43:32;15.00;99.90
50162;DHT22;36061;48.116;11.612;2023-05-10T08:46:00;14.90;99.90
50162;DHT22;36061;48.116;11.612;2023-05-10T08:48:29;14.90;99.90
50162;DHT22;36061;48.116;11.612;2023-05-10T08:50:58;14.70;99.90
50162;DHT22;36061;48.116;11.612;2023-05-10T08:53:28;14.60;99.90
50162;DHT22;36061;48.116;11.612;2023-05-10T08:55:57;14.50;99.90
50162;DHT22;36061;48.116;11.612;2023-05-10T08:58:25;14.40;99.90
50162;DHT22;36061;48.116;11.612;2023-05-10T09:00:52;14.40;99.90
50162;DHT22;36061;48.116;11.612;2023-05-10T09:03:20;14.40;99.90
50162;DHT22;36061;48.116;11.612;2023-05-10T09:05:48;14.40;99.90
50162;DHT22;36061;48.116;11.612;2023-05-10T09:08:17;14.50;99.90
50162;DHT22;36061;48.116;11.612;2023-05-10T09:10:45;14.40;99.90
50162;DHT22;36061;48.116;11.612;2023-05-10T09:13:14;14.40;99.90
50162;DHT22;36061;48.116;11.612;2023-05-10T09:15:44;14.40;99.90
50162;DHT22;36061;48.116;11.612;2023-05-10T09:18:12;14.30;99.90
50162;DHT22;36061;48.116;11.612;2023-05-10T09:20:40;14.40;99.90
50162;DHT22;36061;48.116;11.612;2023-05-10T09:23:07;14.50;99.90
50162;DHT22;36061;48.116;11.612;2023-05-10T09:25:36;14.60;99.90
50162;DHT22;36061;48.116;11.612;2023-05-10T09:28:06;14.70;99.90
50162;DHT22;36061;48.116;11.612;2023-05-10T09:30:35;14.80;99.90
50162;DHT22;36061;48.116;11.612;2023-05-10T09:33:02;14.90;99.90
50162;DHT22;36061;48.116;11.612;2023-05-10T09:35:31;15.00;99.90
50162;DHT22;36061;48.116;11.612;2023-05-10T09:38:00;15.10;99.90
50162;DHT22;36061;48.116;11.612;2023-05-10T09:40:28;15.10;99.90
50162;DHT22;36061;48.116;11.612;2023-05-10T09:42:59;15.10;99.90
50162;DHT22;36061;48.116;11.612;2023-05-10T09:45:30;15.10;99.90
50162;DHT22;36061;48.116;11.612;2023-05-10T09:47:59;15.00;99.90
50162;DHT22;36061;48.116;11.612;2023-05-10T09:50:26;15.10;99.90
50162;DHT22;36061;48.116;11.612;2023-05-10T09:52:55;15.10;99.90
50162;DHT22;36061;48.116;11.612;2023-05-10T09:55:25;15.20;99.90
50162;DHT22;36061;48.116;11.612;2023-05-10T09:58:00;15.30;99.90
50162;DHT22;36061;48.116;11.612;2023-05-10T10:00:29;15.40;99.90
50162;DHT22;36061;48.116;11.612;2023-05-10T10:03:02;15.50;99.90
50162;DHT22;36061;48.116;11.612;2023-05-10T10:05:30;15.60;99.90
50162;DHT22;36061;48.116;11.612;2023-05-10T10:07:57;15.70;99.90
50162;DHT22;36061;48.116;11.612;2023-05-10T10:10:25;15.90;99.90
50162;DHT22;36061;48.116;11.612;2023-05-10T10:12:53;16.00;99.90
50162;DHT22;36061;48.116;11.612;2023-05-10T10:15:22;15.90;99.90
50162;DHT22;36061;48.116;11.612;2023-05-10T10:17:50;15.90;99.90
50162;DHT22;36061;48.116;11.612;2023-05-10T10:20:19;15.80;99.90
50162;DHT22;36061;48.116;11.612;2023-05-10T10:22:47;15.70;99.90
50162;DHT22;36061;48.116;11.612;2023-05-10T10:25:16;15.70;99.90
50162;DHT22;36061;48.116;11.612;2023-05-10T10:27:48;15.70;99.90
50162;DHT22;36061;48.116;11.612;2023-05-10T10:30:41;15.70;99.90
50162;DHT22;36061;48.116;11.612;2023-05-10T10:33:39;15.90;99.90
50162;DHT22;36061;48.116;11.612;2023-05-10T10:36:07;15.90;99.90
50162;DHT22;36061;48.116;11.612;2023-05-10T10:41:29;15.90;99.90
50162;DHT22;36061;48.116;11.612;2023-05-10T10:44:25;15.80;99.90
50162;DHT22;36061;48.116;11.612;2023-05-10T10:47:02;15.80;99.90
50162;DHT22;36061;48.116;11.612;2023-05-10T10:49:32;16.00;99.90
50162;DHT22;36061;48.116;11.612;2023-05-10T10:52:25;16.10;99.90
50162;DHT22;36061;48.116;11.612;2023-05-10T10:55:00;16.30;99.90
50162;DHT22;36061;48.116;11.612;2023-05-10T10:57:43;16.50;99.90
50162;DHT22;36061;48.116;11.612;2023-05-10T11:00:22;16.60;99.90
50162;DHT22;36061;48.116;11.612;2023-05-10T11:02:52;16.70;99.90
50162;DHT22;36061;48.116;11.612;2023-05-10T11:05:43;16.60;99.90
50162;DHT22;36061;48.116;11.612;2023-05-10T11:08:16;16.60;99.90
50162;DHT22;36061;48.116;11.612;2023-05-10T11:11:05;16.40;99.90
50162;DHT22;36061;48.116;11.612;2023-05-10T11:13:37;16.30;99.90
50162;DHT22;36061;48.116;11.612;2023-05-10T11:16:16;16.20;99.90
50162;DHT22;36061;48.116;11.612;2023-05-10T11:19:02;16.10;99.90
50162;DHT22;36061;48.116;11.612;2023-05-10T11:21:30;15.90;99.90
50162;DHT22;36061;48.116;11.612;2023-05-10T11:23:58;15.70;99.90
50162;DHT22;36061;48.116;11.612;2023-05-10T11:26:30;15.40;99.90
50162;DHT22;36061;48.116;11.612;2023-05-10T11:28:58;15.30;99.90
50162;DHT22;36061;48.116;11.612;2023-05-10T11:31:26;15.20;99.90
50162;DHT22;36061;48.116;11.612;2023-05-10T11:33:55;15.10;99.90
50162;DHT22;36061;48.116;11.612;2023-05-10T11:36:25;15.00;99.90
50162;DHT22;36061;48.116;11.612;2023-05-10T11:38:53;14.90;99.90
50162;DHT22;36061;48.116;11.612;2023-05-10T11:41:23;14.90;99.90
50162;DHT22;36061;48.116;11.612;2023-05-10T11:43:51;14.70;99.90
50162;DHT22;36061;48.116;11.612;2023-05-10T11:46:19;14.60;99.90
50162;DHT22;36061;48.116;11.612;2023-05-10T11:48:49;14.50;99.90
50162;DHT22;36061;48.116;11.612;2023-05-10T11:51:20;14.20;99.90
50162;DHT22;36061;48.116;11.612;2023-05-10T11:53:50;14.00;99.90
50162;DHT22;36061;48.116;11.612;2023-05-10T11:56:17;13.70;99.90
50162;DHT22;36061;48.116;11.612;2023-05-10T11:58:44;13.60;99.90
50162;DHT22;36061;48.116;11.612;2023-05-10T12:01:12;13.50;99.90
50162;DHT22;36061;48.116;11.612;2023-05-10T12:03:42;13.40;99.90
50162;DHT22;36061;48.116;11.612;2023-05-10T12:06:09;13.20;99.90
50162;DHT22;36061;48.116;11.612;2023-05-10T12:08:36;13.10;99.90
50162;DHT22;36061;48.116;11.612;2023-05-10T12:11:13;13.10;99.90
50162;DHT22;36061;48.116;11.612;2023-05-10T12:13:42;13.10;99.90
50162;DHT22;36061;48.116;11.612;2023-05-10T12:16:16;13.00;99.90
50162;DHT22;36061;48.116;11.612;2023-05-10T12:18:43;12.90;99.90
50162;DHT22;36061;48.116;11.612;2023-05-10T12:21:11;12.90;99.90
50162;DHT22;36061;48.116;11.612;2023-05-10T12:23:39;12.80;99.90
50162;DHT22;36061;48.116;11.612;2023-05-10T12:26:08;12.80;99.90
50162;DHT22;36061;48.116;11.612;2023-05-10T12:28:37;12.80;99.90
50162;DHT22;36061;48.116;11.612;2023-05-10T12:31:06;12.90;99.90
50162;DHT22;36061;48.116;11.612;2023-05-10T12:33:37;12.90;99.90
50162;DHT22;36061;48.116;11.612;2023-05-10T12:36:08;12.90;99.90
50162;DHT22;36061;48.116;11.612;2023-05-10T12:38:36;12.90;99.90
50162;DHT22;36061;48.116;11.612;2023-05-10T12:41:05;12.90;99.90
50162;DHT22;36061;48.116;11.612;2023-05-10T12:43:33;12.90;99.90
50162;DHT22;36061;48.116;11.612;2023-05-10T12:46:06;12.80;99.90
50162;DHT22;36061;48.116;11.612;2023-05-10T12:48:34;12.80;99.90
50162;DHT22;36061;48.116;11.612;2023-05-10T12:51:01;12.80;99.90
50162;DHT22;36061;48.116;11.612;2023-05-10T12:53:29;12.70;99.90
50162;DHT22;36061;48.116;11.612;2023-05-10T12:55:56;12.80;99.90
50162;DHT22;36061;48.116;11.612;2023-05-10T12:58:24;12.80;99.90
50162;DHT22;36061;48.116;11.612;2023-05-10T13:00:51;12.90;99.90
50162;DHT22;36061;48.116;11.612;2023-05-10T13:03:20;12.90;99.90
50162;DHT22;36061;48.116;11.612;2023-05-10T13:05:47;12.90;99.90
50162;DHT22;36061;48.116;11.612;2023-05-10T13:08:14;13.00;99.90
50162;DHT22;36061;48.116;11.612;2023-05-10T13:10:42;13.00;99.90
50162;DHT22;36061;48.116;11.612;2023-05-10T13:13:09;13.10;99.90
50162;DHT22;36061;48.116;11.612;2023-05-10T13:15:36;13.10;99.90
50162;DHT22;36061;48.116;11.612;2023-05-10T13:18:04;13.10;99.90
50162;DHT22;36061;48.116;11.612;2023-05-10T13:20:32;13.20;99.90
50162;DHT22;36061;48.116;11.612;2023-05-10T13:22:59;13.20;99.90
50162;DHT22;36061;48.116;11.612;2023-05-10T13:25:26;13.30;99.90
50162;DHT22;36061;48.116;11.612;2023-05-10T13:27:54;13.30;99.90
50162;DHT22;36061;48.116;11.612;2023-05-10T13:30:21;13.30;99.90
50162;DHT22;36061;48.116;11.612;2023-05-10T13:32:49;13.30;99.90
50162;DHT22;36061;48.116;11.612;2023-05-10T13:35:16;13.30;99.90
50162;DHT22;36061;48.116;11.612;2023-05-10T13:37:45;13.30;99.90
50162;DHT22;36061;48.116;11.612;2023-05-10T13:40:12;13.30;99.90
50162;DHT22;36061;48.116;11.612;2023-05-10T13:42:42;13.30;99.90
50162;DHT22;36061;48.116;11.612;2023-05-10T13:45:10;13.30;99.90
50162;DHT22;36061;48.116;11.612;2023-05-10T13:47:37;13.30;99.90
50162;DHT22;36061;48.116;11.612;2023-05-10T13:50:06;13.30;99.90
50162;DHT22;36061;48.116;11.612;2023-05-10T13:52:33;13.30;99.90
50162;DHT22;36061;48.116;11.612;2023-05-10T13:55:02;13.30;99.90
50162;DHT22;36061;48.116;11.612;2023-05-10T13:57:29;13.30;99.90
50162;DHT22;36061;48.116;11.612;2023-05-10T13:59:57;13.30;99.90
50162;DHT22;36061;48.116;11.612;2023-05-10T14:02:24;13.20;99.90
50162;DHT22;36061;48.116;11.612;2023-05-10T14:04:53;13.30;99.90
50162;DHT22;36061;48.116;11.612;2023-05-10T14:07:20;13.30;99.90
50162;DHT22;36061;48.116;11.612;2023-05-10T14:09:47;13.20;99.90
50162;DHT22;36061;48.116;11.612;2023-05-10T14:12:16;13.30;99.90
50162;DHT22;36061;48.116;11.612;2023-05-10T14:14:43;13.30;99.90
50162;DHT22;36061;48.116;11.612;2023-05-10T14:17:11;13.20;99.90
50162;DHT22;36061;48.116;11.612;2023-05-10T14:19:38;13.20;99.90
50162;DHT22;36061;48.116;11.612;2023-05-10T14:22:05;13.30;99.90
50162;DHT22;36061;48.116;11.612;2023-05-10T14:24:32;13.20;99.90
50162;DHT22;36061;48.116;11.612;2023-05-10T14:27:00;13.20;99.90
50162;DHT22;36061;48.116;11.612;2023-05-10T14:29:28;13.10;99.90
50162;DHT22;36061;48.116;11.612;2023-05-10T14:31:55;13.10;99.90
50162;DHT22;36061;48.116;11.612;2023-05-10T14:34:22;13.10;99.90
50162;DHT22;36061;48.116;11.612;2023-05-10T14:36:50;13.10;99.90
50162;DHT22;36061;48.116;11.612;2023-05-10T14:39:17;13.10;99.90
50162;DHT22;36061;48.116;11.612;2023-05-10T14:41:44;13.10;99.90
50162;DHT22;36061;48.116;11.612;2023-05-10T14:44:12;13.20;99.90
50162;DHT22;36061;48.116;11.612;2023-05-10T14:46:42;13.20;99.90
50162;DHT22;36061;48.116;11.612;2023-05-10T14:49:09;13.20;99.90
50162;DHT22;36061;48.116;11.612;2023-05-10T14:51:36;13.20;99.90
50162;DHT22;36061;48.116;11.612;2023-05-10T14:54:04;13.10;99.90
50162;DHT22;36061;48.116;11.612;2023-05-10T14:56:31;13.00;99.90
50162;DHT22;36061;48.116;11.612;2023-05-10T14:58:58;12.90;99.90
50162;DHT22;36061;48.116;11.612;2023-05-10T15:01:26;12.90;99.90
50162;DHT22;36061;48.116;11.612;2023-05-10T15:03:54;12.90;99.90
50162;DHT22;36061;48.116;11.612;2023-05-10T15:06:23;12.80;99.90
50162;DHT22;36061;48.116;11.612;2023-05-10T15:08:51;12.80;99.90
50162;DHT22;36061;48.116;11.612;2023-05-10T15:11:19;12.70;99.90
50162;DHT22;36061;48.116;11.612;2023-05-10T15:13:47;12.70;99.90
50162;DHT22;36061;48.116;11.612;2023-05-10T15:16:14;12.70;99.90
50162;DHT22;36061;48.116;11.612;2023-05-10T15:18:41;12.50;99.90
50162;DHT22;36061;48.116;11.612;2023-05-10T15:21:10;12.50;99.90
50162;DHT22;36061;48.116;11.612;2023-05-10T15:23:38;12.50;99.90
50162;DHT22;36061;48.116;11.612;2023-05-10T15:26:05;12.40;99.90
50162;DHT22;36061;48.116;11.612;2023-05-10T15:28:33;12.40;99.90
50162;DHT22;36061;48.116;11.612;2023-05-10T15:31:00;12.40;99.90
50162;DHT22;36061;48.116;11.612;2023-05-10T15:33:28;12.40;99.90